sensor_id;sensor_type;location;lat;lon;timestamp;P1;durP1;ratioP1;P2;durP2;ratioP2
72924;SDS011;61070;50.794;7.054;2023-08-06T00:00:28;4.95;;;3.45;;
72924;SDS011;61070;50.794;7.054;2023-08-06T00:00:58;7.38;;;3.53;;
72924;SDS011;61070;50.794;7.054;2023-08-06T00:01:29;8.38;;;3.58;;
72924;SDS011;61070;50.794;7.054;2023-08-06T00:01:59;6.88;;;3.95;;
72924;SDS011;61070;50.794;7.054;2023-08-06T00:02:29;10.25;;;3.50;;
72924;SDS011;61070;50.794;7.054;2023-08-06T00:02:59;5.45;;;3.67;;
72924;SDS011;61070;50.794;7.054;2023-08-06T00:03:30;6.50;;;3.42;;
72924;SDS011;61070;50.794;7.054;2023-08-06T00:04:00;6.40;;;3.25;;
72924;SDS011;61070;50.794;7.054;2023-08-06T00:04:31;5.18;;;3.42;;
72924;SDS011;61070;50.794;7.054;2023-08-06T00:05:01;6.85;;;3.70;;
72924;SDS011;61070;50.794;7.054;2023-08-06T00:05:32;7.47;;;3.88;;
72924;SDS011;61070;50.794;7.054;2023-08-06T00:06:04;9.30;;;3.75;;
72924;SDS011;61070;50.794;7.054;2023-08-06T00:06:36;11.65;;;4.13;;
72924;SDS011;61070;50.794;7.054;2023-08-06T00:07:06;4.25;;;3.10;;
72924;SDS011;61070;50.794;7.054;2023-08-06T00:07:36;6.80;;;3.63;;
72924;SDS011;61070;50.794;7.054;2023-08-06T00:08:06;5.47;;;3.67;;
72924;SDS011;61070;50.794;7.054;2023-08-06T00:08:37;7.28;;;3.75;;
72924;SDS011;61070;50.794;7.054;2023-08-06T00:09:07;6.55;;;3.05;;
72924;SDS011;61070;50.794;7.054;2023-08-06T00:09:38;6.93;;;4.05;;
72924;SDS011;61070;50.794;7.054;2023-08-06T00:10:08;7.57;;;3.80;;
72924;SDS011;61070;50.794;7.054;2023-08-06T00:10:39;6.65;;;3.28;;
72924;SDS011;61070;50.794;7.054;2023-08-06T00:11:10;7.50;;;3.38;;
72924;SDS011;61070;50.794;7.054;2023-08-06T00:11:40;8.48;;;3.90;;
72924;SDS011;61070;50.794;7.054;2023-08-06T00:12:13;11.70;;;3.50;;
72924;SDS011;61070;50.794;7.054;2023-08-06T00:12:44;7.68;;;4.50;;
72924;SDS011;61070;50.794;7.054;2023-08-06T00:13:14;7.35;;;3.88;;
72924;SDS011;61070;50.794;7.054;2023-08-06T00:13:44;5.15;;;3.45;;
72924;SDS011;61070;50.794;7.054;2023-08-06T00:14:14;5.25;;;3.60;;
72924;SDS011;61070;50.794;7.054;2023-08-06T00:14:50;7.53;;;4.15;;
72924;SDS011;61070;50.794;7.054;2023-08-06T00:15:21;9.32;;;3.72;;
72924;SDS011;61070;50.794;7.054;2023-08-06T00:15:52;6.50;;;3.72;;
72924;SDS011;61070;50.794;7.054;2023-08-06T00:16:22;9.98;;;4.10;;
72924;SDS011;61070;50.794;7.054;2023-08-06T00:16:52;8.93;;;3.33;;
72924;SDS011;61070;50.794;7.054;2023-08-06T00:17:23;5.70;;;3.63;;
72924;SDS011;61070;50.794;7.054;2023-08-06T00:17:53;7.38;;;3.80;;
72924;SDS011;61070;50.794;7.054;2023-08-06T00:18:23;9.77;;;3.50;;
72924;SDS011;61070;50.794;7.054;2023-08-06T00:18:53;6.93;;;3.88;;
72924;SDS011;61070;50.794;7.054;2023-08-06T00:19:24;5.97;;;3.50;;
72924;SDS011;61070;50.794;7.054;2023-08-06T00:19:54;9.93;;;4.32;;
72924;SDS011;61070;50.794;7.054;2023-08-06T00:20:24;6.50;;;3.85;;
72924;SDS011;61070;50.794;7.054;2023-08-06T00:20:54;6.40;;;3.70;;
72924;SDS011;61070;50.794;7.054;2023-08-06T00:21:25;10.98;;;4.05;;
72924;SDS011;61070;50.794;7.054;2023-08-06T00:21:55;14.43;;;3.70;;
72924;SDS011;61070;50.794;7.054;2023-08-06T00:22:25;7.53;;;4.25;;
72924;SDS011;61070;50.794;7.054;2023-08-06T00:22:56;9.32;;;3.70;;
72924;SDS011;61070;50.794;7.054;2023-08-06T00:23:26;6.53;;;4.45;;
72924;SDS011;61070;50.794;7.054;2023-08-06T00:23:56;6.15;;;4.25;;
72924;SDS011;61070;50.794;7.054;2023-08-06T00:24:26;7.97;;;4.40;;
72924;SDS011;61070;50.794;7.054;2023-08-06T00:24:57;13.43;;;4.47;;
72924;SDS011;61070;50.794;7.054;2023-08-06T00:25:27;6.53;;;4.07;;
72924;SDS011;61070;50.794;7.054;2023-08-06T00:25:57;7.13;;;4.15;;
72924;SDS011;61070;50.794;7.054;2023-08-06T00:26:28;14.25;;;4.13;;
72924;SDS011;61070;50.794;7.054;2023-08-06T00:26:58;10.27;;;4.45;;
72924;SDS011;61070;50.794;7.054;2023-08-06T00:27:28;7.65;;;3.80;;
72924;SDS011;61070;50.794;7.054;2023-08-06T00:27:59;6.32;;;4.03;;
72924;SDS011;61070;50.794;7.054;2023-08-06T00:28:29;7.43;;;4.25;;
72924;SDS011;61070;50.794;7.054;2023-08-06T00:28:59;7.85;;;3.38;;
72924;SDS011;61070;50.794;7.054;2023-08-06T00:29:30;7.60;;;3.90;;
72924;SDS011;61070;50.794;7.054;2023-08-06T00:30:00;9.38;;;4.13;;
72924;SDS011;61070;50.794;7.054;2023-08-06T00:30:30;7.22;;;4.05;;
72924;SDS011;61070;50.794;7.054;2023-08-06T00:31:01;6.60;;;4.28;;
72924;SDS011;61070;50.794;7.054;2023-08-06T00:31:31;5.85;;;4.40;;
72924;SDS011;61070;50.794;7.054;2023-08-06T00:32:01;5.85;;;3.75;;
72924;SDS011;61070;50.794;7.054;2023-08-06T00:32:32;8.82;;;4.28;;
72924;SDS011;61070;50.794;7.054;2023-08-06T00:33:02;9.10;;;4.25;;
72924;SDS011;61070;50.794;7.054;2023-08-06T00:33:32;9.18;;;4.20;;
72924;SDS011;61070;50.794;7.054;2023-08-06T00:34:03;8.77;;;4.13;;
72924;SDS011;61070;50.794;7.054;2023-08-06T00:34:33;9.48;;;4.40;;
72924;SDS011;61070;50.794;7.054;2023-08-06T00:35:03;6.80;;;4.47;;
72924;SDS011;61070;50.794;7.054;2023-08-06T00:35:34;7.20;;;4.32;;
72924;SDS011;61070;50.794;7.054;2023-08-06T00:36:04;6.32;;;3.95;;
72924;SDS011;61070;50.794;7.054;2023-08-06T00:36:35;7.68;;;4.35;;
72924;SDS011;61070;50.794;7.054;2023-08-06T00:37:05;7.97;;;4.28;;
72924;SDS011;61070;50.794;7.054;2023-08-06T00:37:35;7.78;;;3.80;;
72924;SDS011;61070;50.794;7.054;2023-08-06T00:38:05;5.80;;;3.30;;
72924;SDS011;61070;50.794;7.054;2023-08-06T00:38:36;7.70;;;3.83;;
72924;SDS011;61070;50.794;7.054;2023-08-06T00:39:06;7.22;;;4.25;;
72924;SDS011;61070;50.794;7.054;2023-08-06T00:39:37;10.00;;;4.47;;
72924;SDS011;61070;50.794;7.054;2023-08-06T00:40:07;7.68;;;3.58;;
72924;SDS011;61070;50.794;7.054;2023-08-06T00:40:38;9.45;;;4.53;;
72924;SDS011;61070;50.794;7.054;2023-08-06T00:41:08;9.07;;;4.15;;
72924;SDS011;61070;50.794;7.054;2023-08-06T00:41:39;6.20;;;3.63;;
72924;SDS011;61070;50.794;7.054;2023-08-06T00:42:09;4.18;;;3.40;;
72924;SDS011;61070;50.794;7.054;2023-08-06T00:42:40;6.45;;;3.95;;
72924;SDS011;61070;50.794;7.054;2023-08-06T00:43:11;6.88;;;4.13;;
72924;SDS011;61070;50.794;7.054;2023-08-06T00:43:41;10.38;;;4.20;;
72924;SDS011;61070;50.794;7.054;2023-08-06T00:44:11;6.80;;;4.10;;
72924;SDS011;61070;50.794;7.054;2023-08-06T00:44:41;5.50;;;3.63;;
72924;SDS011;61070;50.794;7.054;2023-08-06T00:45:12;8.75;;;4.00;;
72924;SDS011;61070;50.794;7.054;2023-08-06T00:45:42;7.50;;;3.63;;
72924;SDS011;61070;50.794;7.054;2023-08-06T00:46:13;7.32;;;3.65;;
72924;SDS011;61070;50.794;7.054;2023-08-06T00:46:44;6.30;;;4.00;;
72924;SDS011;61070;50.794;7.054;2023-08-06T00:47:15;6.25;;;4.00;;
72924;SDS011;61070;50.794;7.054;2023-08-06T00:47:46;7.90;;;3.67;;
72924;SDS011;61070;50.794;7.054;2023-08-06T00:48:17;8.00;;;4.15;;
72924;SDS011;61070;50.794;7.054;2023-08-06T00:48:48;8.23;;;4.35;;
72924;SDS011;61070;50.794;7.054;2023-08-06T00:49:18;6.97;;;4.10;;
72924;SDS011;61070;50.794;7.054;2023-08-06T00:49:49;8.30;;;4.40;;
72924;SDS011;61070;50.794;7.054;2023-08-06T00:50:19;5.85;;;4.15;;
72924;SDS011;61070;50.794;7.054;2023-08-06T00:50:52;9.05;;;4.07;;
72924;SDS011;61070;50.794;7.054;2023-08-06T00:51:23;7.53;;;4.00;;
72924;SDS011;61070;50.794;7.054;2023-08-06T00:51:54;6.40;;;3.88;;
72924;SDS011;61070;50.794;7.054;2023-08-06T00:52:26;5.65;;;3.55;;
72924;SDS011;61070;50.794;7.054;2023-08-06T00:52:56;5.97;;;4.03;;
72924;SDS011;61070;50.794;7.054;2023-08-06T00:53:26;5.72;;;3.65;;
72924;SDS011;61070;50.794;7.054;2023-08-06T00:53:57;6.28;;;4.18;;
72924;SDS011;61070;50.794;7.054;2023-08-06T00:54:27;7.30;;;4.38;;
72924;SDS011;61070;50.794;7.054;2023-08-06T00:54:58;4.88;;;3.35;;
72924;SDS011;61070;50.794;7.054;2023-08-06T00:55:28;5.90;;;4.30;;
72924;SDS011;61070;50.794;7.054;2023-08-06T00:55:59;10.27;;;4.38;;
72924;SDS011;61070;50.794;7.054;2023-08-06T00:56:29;7.95;;;4.00;;
72924;SDS011;61070;50.794;7.054;2023-08-06T00:57:00;8.63;;;4.32;;
72924;SDS011;61070;50.794;7.054;2023-08-06T00:57:31;12.10;;;4.60;;
72924;SDS011;61070;50.794;7.054;2023-08-06T00:58:01;7.75;;;4.00;;
72924;SDS011;61070;50.794;7.054;2023-08-06T00:58:32;6.20;;;3.70;;
72924;SDS011;61070;50.794;7.054;2023-08-06T00:59:03;5.15;;;3.47;;
72924;SDS011;61070;50.794;7.054;2023-08-06T00:59:35;6.15;;;3.72;;
72924;SDS011;61070;50.794;7.054;2023-08-06T01:00:06;6.75;;;4.20;;
72924;SDS011;61070;50.794;7.054;2023-08-06T01:00:37;11.40;;;4.22;;
72924;SDS011;61070;50.794;7.054;2023-08-06T01:01:08;6.20;;;4.25;;
72924;SDS011;61070;50.794;7.054;2023-08-06T01:01:38;9.60;;;4.05;;
72924;SDS011;61070;50.794;7.054;2023-08-06T01:02:08;7.85;;;4.43;;
72924;SDS011;61070;50.794;7.054;2023-08-06T01:02:39;7.05;;;3.67;;
72924;SDS011;61070;50.794;7.054;2023-08-06T01:03:09;6.90;;;3.45;;
72924;SDS011;61070;50.794;7.054;2023-08-06T01:03:40;5.57;;;3.85;;
72924;SDS011;61070;50.794;7.054;2023-08-06T01:04:10;7.85;;;3.92;;
72924;SDS011;61070;50.794;7.054;2023-08-06T01:04:41;4.85;;;3.38;;
72924;SDS011;61070;50.794;7.054;2023-08-06T01:05:12;6.70;;;4.05;;
72924;SDS011;61070;50.794;7.054;2023-08-06T01:05:42;6.90;;;4.28;;
72924;SDS011;61070;50.794;7.054;2023-08-06T01:06:12;7.47;;;4.55;;
72924;SDS011;61070;50.794;7.054;2023-08-06T01:07:51;8.52;;;3.67;;
72924;SDS011;61070;50.794;7.054;2023-08-06T01:09:05;9.55;;;4.18;;
72924;SDS011;61070;50.794;7.054;2023-08-06T01:09:53;7.65;;;4.45;;
72924;SDS011;61070;50.794;7.054;2023-08-06T01:13:42;7.80;;;4.07;;
72924;SDS011;61070;50.794;7.054;2023-08-06T01:14:24;5.47;;;3.90;;
72924;SDS011;61070;50.794;7.054;2023-08-06T01:15:11;7.85;;;4.53;;
72924;SDS011;61070;50.794;7.054;2023-08-06T01:15:46;6.40;;;4.70;;
72924;SDS011;61070;50.794;7.054;2023-08-06T01:16:20;6.43;;;3.63;;
72924;SDS011;61070;50.794;7.054;2023-08-06T01:16:51;9.27;;;3.90;;
72924;SDS011;61070;50.794;7.054;2023-08-06T01:17:22;8.05;;;4.07;;
72924;SDS011;61070;50.794;7.054;2023-08-06T01:17:53;5.50;;;3.50;;
72924;SDS011;61070;50.794;7.054;2023-08-06T01:18:25;7.68;;;4.03;;
72924;SDS011;61070;50.794;7.054;2023-08-06T01:18:55;6.40;;;4.10;;
72924;SDS011;61070;50.794;7.054;2023-08-06T01:19:28;5.93;;;4.03;;
72924;SDS011;61070;50.794;7.054;2023-08-06T01:19:58;6.78;;;3.90;;
72924;SDS011;61070;50.794;7.054;2023-08-06T01:20:29;5.10;;;3.67;;
72924;SDS011;61070;50.794;7.054;2023-08-06T01:21:00;4.78;;;3.17;;
72924;SDS011;61070;50.794;7.054;2023-08-06T01:21:31;6.18;;;3.85;;
72924;SDS011;61070;50.794;7.054;2023-08-06T01:22:01;6.22;;;3.67;;
72924;SDS011;61070;50.794;7.054;2023-08-06T01:22:31;6.43;;;3.45;;
72924;SDS011;61070;50.794;7.054;2023-08-06T01:23:02;8.02;;;4.05;;
72924;SDS011;61070;50.794;7.054;2023-08-06T01:23:32;8.13;;;3.25;;
72924;SDS011;61070;50.794;7.054;2023-08-06T01:24:03;5.38;;;3.80;;
72924;SDS011;61070;50.794;7.054;2023-08-06T01:24:33;7.65;;;3.33;;
72924;SDS011;61070;50.794;7.054;2023-08-06T01:25:04;4.70;;;3.60;;
72924;SDS011;61070;50.794;7.054;2023-08-06T01:26:35;7.45;;;3.92;;
72924;SDS011;61070;50.794;7.054;2023-08-06T01:27:14;6.90;;;3.72;;
72924;SDS011;61070;50.794;7.054;2023-08-06T01:27:53;8.45;;;3.33;;
72924;SDS011;61070;50.794;7.054;2023-08-06T01:29:41;7.95;;;3.28;;
72924;SDS011;61070;50.794;7.054;2023-08-06T01:30:27;5.20;;;3.22;;
72924;SDS011;61070;50.794;7.054;2023-08-06T01:31:01;11.85;;;4.00;;
72924;SDS011;61070;50.794;7.054;2023-08-06T01:31:35;9.73;;;4.25;;
72924;SDS011;61070;50.794;7.054;2023-08-06T01:32:08;7.25;;;3.58;;
72924;SDS011;61070;50.794;7.054;2023-08-06T01:32:44;5.70;;;3.03;;
72924;SDS011;61070;50.794;7.054;2023-08-06T01:33:19;5.32;;;3.70;;
72924;SDS011;61070;50.794;7.054;2023-08-06T01:33:51;7.68;;;3.15;;
72924;SDS011;61070;50.794;7.054;2023-08-06T01:34:24;6.68;;;3.40;;
72924;SDS011;61070;50.794;7.054;2023-08-06T01:34:57;6.32;;;3.72;;
72924;SDS011;61070;50.794;7.054;2023-08-06T01:35:30;7.03;;;3.35;;
72924;SDS011;61070;50.794;7.054;2023-08-06T01:36:02;9.45;;;3.53;;
72924;SDS011;61070;50.794;7.054;2023-08-06T01:36:33;6.30;;;3.65;;
72924;SDS011;61070;50.794;7.054;2023-08-06T01:37:04;9.70;;;3.85;;
72924;SDS011;61070;50.794;7.054;2023-08-06T01:37:35;6.05;;;2.97;;
72924;SDS011;61070;50.794;7.054;2023-08-06T01:38:07;7.28;;;3.67;;
72924;SDS011;61070;50.794;7.054;2023-08-06T01:38:37;5.38;;;3.47;;
72924;SDS011;61070;50.794;7.054;2023-08-06T01:39:08;8.98;;;4.15;;
72924;SDS011;61070;50.794;7.054;2023-08-06T01:39:39;6.07;;;3.20;;
72924;SDS011;61070;50.794;7.054;2023-08-06T01:40:12;8.15;;;4.10;;
72924;SDS011;61070;50.794;7.054;2023-08-06T01:40:43;7.15;;;3.22;;
72924;SDS011;61070;50.794;7.054;2023-08-06T01:41:13;9.82;;;3.42;;
72924;SDS011;61070;50.794;7.054;2023-08-06T01:41:43;4.72;;;3.30;;
72924;SDS011;61070;50.794;7.054;2023-08-06T01:42:14;6.78;;;3.22;;
72924;SDS011;61070;50.794;7.054;2023-08-06T01:42:44;5.85;;;3.78;;
72924;SDS011;61070;50.794;7.054;2023-08-06T01:43:14;4.93;;;2.85;;
72924;SDS011;61070;50.794;7.054;2023-08-06T01:43:44;7.22;;;3.20;;
72924;SDS011;61070;50.794;7.054;2023-08-06T01:44:16;6.53;;;3.60;;
72924;SDS011;61070;50.794;7.054;2023-08-06T01:44:46;6.85;;;3.38;;
72924;SDS011;61070;50.794;7.054;2023-08-06T01:45:17;6.05;;;3.72;;
72924;SDS011;61070;50.794;7.054;2023-08-06T01:45:47;6.10;;;3.50;;
72924;SDS011;61070;50.794;7.054;2023-08-06T01:46:17;5.57;;;3.28;;
72924;SDS011;61070;50.794;7.054;2023-08-06T01:46:47;7.10;;;3.40;;
72924;SDS011;61070;50.794;7.054;2023-08-06T01:47:18;5.82;;;3.40;;
72924;SDS011;61070;50.794;7.054;2023-08-06T01:47:48;6.18;;;2.92;;
72924;SDS011;61070;50.794;7.054;2023-08-06T01:48:18;6.97;;;3.13;;
72924;SDS011;61070;50.794;7.054;2023-08-06T01:48:49;5.78;;;2.85;;
72924;SDS011;61070;50.794;7.054;2023-08-06T01:49:19;4.40;;;2.78;;
72924;SDS011;61070;50.794;7.054;2023-08-06T01:49:49;6.45;;;2.88;;
72924;SDS011;61070;50.794;7.054;2023-08-06T01:50:19;6.30;;;3.53;;
72924;SDS011;61070;50.794;7.054;2023-08-06T01:50:50;7.30;;;3.60;;
72924;SDS011;61070;50.794;7.054;2023-08-06T01:51:20;5.03;;;2.75;;
72924;SDS011;61070;50.794;7.054;2023-08-06T01:51:50;4.60;;;3.13;;
72924;SDS011;61070;50.794;7.054;2023-08-06T01:52:20;8.85;;;3.05;;
72924;SDS011;61070;50.794;7.054;2023-08-06T01:52:51;6.90;;;2.60;;
72924;SDS011;61070;50.794;7.054;2023-08-06T01:53:21;8.05;;;3.22;;
72924;SDS011;61070;50.794;7.054;2023-08-06T01:53:51;6.65;;;3.55;;
72924;SDS011;61070;50.794;7.054;2023-08-06T01:54:21;6.80;;;3.13;;
72924;SDS011;61070;50.794;7.054;2023-08-06T01:54:52;10.55;;;4.07;;
72924;SDS011;61070;50.794;7.054;2023-08-06T01:55:23;4.85;;;3.15;;
72924;SDS011;61070;50.794;7.054;2023-08-06T01:55:53;6.22;;;3.63;;
72924;SDS011;61070;50.794;7.054;2023-08-06T01:56:23;9.60;;;2.88;;
72924;SDS011;61070;50.794;7.054;2023-08-06T01:56:53;5.38;;;2.95;;
72924;SDS011;61070;50.794;7.054;2023-08-06T01:57:24;5.10;;;3.10;;
72924;SDS011;61070;50.794;7.054;2023-08-06T01:57:54;8.93;;;3.25;;
72924;SDS011;61070;50.794;7.054;2023-08-06T01:58:24;4.50;;;2.67;;
72924;SDS011;61070;50.794;7.054;2023-08-06T01:58:55;6.20;;;3.25;;
72924;SDS011;61070;50.794;7.054;2023-08-06T01:59:25;3.90;;;3.03;;
72924;SDS011;61070;50.794;7.054;2023-08-06T01:59:55;7.43;;;2.97;;
72924;SDS011;61070;50.794;7.054;2023-08-06T02:00:25;6.30;;;2.75;;
72924;SDS011;61070;50.794;7.054;2023-08-06T02:00:57;4.95;;;2.55;;
72924;SDS011;61070;50.794;7.054;2023-08-06T02:01:28;7.18;;;3.60;;
72924;SDS011;61070;50.794;7.054;2023-08-06T02:01:58;3.78;;;2.90;;
72924;SDS011;61070;50.794;7.054;2023-08-06T02:02:28;6.13;;;3.33;;
72924;SDS011;61070;50.794;7.054;2023-08-06T02:02:59;4.65;;;2.67;;
72924;SDS011;61070;50.794;7.054;2023-08-06T02:03:29;5.70;;;3.20;;
72924;SDS011;61070;50.794;7.054;2023-08-06T02:03:59;4.28;;;3.03;;
72924;SDS011;61070;50.794;7.054;2023-08-06T02:04:29;4.03;;;3.20;;
72924;SDS011;61070;50.794;7.054;2023-08-06T02:05:00;5.03;;;2.65;;
72924;SDS011;61070;50.794;7.054;2023-08-06T02:05:30;4.30;;;3.25;;
72924;SDS011;61070;50.794;7.054;2023-08-06T02:06:00;5.28;;;3.22;;
72924;SDS011;61070;50.794;7.054;2023-08-06T02:06:31;4.10;;;3.28;;
72924;SDS011;61070;50.794;7.054;2023-08-06T02:07:01;6.90;;;3.15;;
72924;SDS011;61070;50.794;7.054;2023-08-06T02:07:31;5.15;;;3.05;;
72924;SDS011;61070;50.794;7.054;2023-08-06T02:08:01;4.30;;;2.90;;
72924;SDS011;61070;50.794;7.054;2023-08-06T02:08:32;5.05;;;2.63;;
72924;SDS011;61070;50.794;7.054;2023-08-06T02:09:02;7.75;;;3.22;;
72924;SDS011;61070;50.794;7.054;2023-08-06T02:09:32;5.78;;;3.08;;
72924;SDS011;61070;50.794;7.054;2023-08-06T02:10:03;7.15;;;3.30;;
72924;SDS011;61070;50.794;7.054;2023-08-06T02:10:33;5.63;;;3.10;;
72924;SDS011;61070;50.794;7.054;2023-08-06T02:11:04;4.47;;;3.40;;
72924;SDS011;61070;50.794;7.054;2023-08-06T02:11:34;4.90;;;2.85;;
72924;SDS011;61070;50.794;7.054;2023-08-06T02:12:04;6.28;;;3.10;;
72924;SDS011;61070;50.794;7.054;2023-08-06T02:12:35;4.35;;;2.95;;
72924;SDS011;61070;50.794;7.054;2023-08-06T02:13:05;5.85;;;3.28;;
72924;SDS011;61070;50.794;7.054;2023-08-06T02:13:36;6.97;;;3.58;;
72924;SDS011;61070;50.794;7.054;2023-08-06T02:14:06;5.38;;;3.53;;
72924;SDS011;61070;50.794;7.054;2023-08-06T02:14:36;3.50;;;2.47;;
72924;SDS011;61070;50.794;7.054;2023-08-06T02:15:07;6.43;;;3.17;;
72924;SDS011;61070;50.794;7.054;2023-08-06T02:15:44;4.15;;;2.33;;
72924;SDS011;61070;50.794;7.054;2023-08-06T02:16:17;4.45;;;2.92;;
72924;SDS011;61070;50.794;7.054;2023-08-06T02:16:47;8.60;;;2.72;;
72924;SDS011;61070;50.794;7.054;2023-08-06T02:17:17;5.72;;;3.00;;
72924;SDS011;61070;50.794;7.054;2023-08-06T02:17:48;6.22;;;2.95;;
72924;SDS011;61070;50.794;7.054;2023-08-06T02:18:18;5.75;;;3.05;;
72924;SDS011;61070;50.794;7.054;2023-08-06T02:18:48;5.15;;;2.97;;
72924;SDS011;61070;50.794;7.054;2023-08-06T02:19:18;4.70;;;3.13;;
72924;SDS011;61070;50.794;7.054;2023-08-06T02:19:49;5.85;;;2.70;;
72924;SDS011;61070;50.794;7.054;2023-08-06T02:20:19;5.80;;;2.80;;
72924;SDS011;61070;50.794;7.054;2023-08-06T02:20:56;6.40;;;2.85;;
72924;SDS011;61070;50.794;7.054;2023-08-06T02:21:29;5.30;;;3.00;;
72924;SDS011;61070;50.794;7.054;2023-08-06T02:22:00;4.40;;;2.17;;
72924;SDS011;61070;50.794;7.054;2023-08-06T02:22:30;6.80;;;2.70;;
72924;SDS011;61070;50.794;7.054;2023-08-06T02:23:00;7.97;;;4.00;;
72924;SDS011;61070;50.794;7.054;2023-08-06T02:23:30;6.45;;;2.85;;
72924;SDS011;61070;50.794;7.054;2023-08-06T02:24:01;3.88;;;3.22;;
72924;SDS011;61070;50.794;7.054;2023-08-06T02:24:31;5.45;;;2.83;;
72924;SDS011;61070;50.794;7.054;2023-08-06T02:25:02;5.38;;;2.53;;
72924;SDS011;61070;50.794;7.054;2023-08-06T02:25:32;3.53;;;2.83;;
72924;SDS011;61070;50.794;7.054;2023-08-06T02:26:03;5.70;;;2.80;;
72924;SDS011;61070;50.794;7.054;2023-08-06T02:26:34;6.40;;;2.80;;
72924;SDS011;61070;50.794;7.054;2023-08-06T02:27:04;5.10;;;2.90;;
72924;SDS011;61070;50.794;7.054;2023-08-06T02:27:35;6.95;;;2.75;;
72924;SDS011;61070;50.794;7.054;2023-08-06T02:28:06;6.57;;;2.55;;
72924;SDS011;61070;50.794;7.054;2023-08-06T02:28:37;4.55;;;2.97;;
72924;SDS011;61070;50.794;7.054;2023-08-06T02:29:07;6.72;;;3.03;;
72924;SDS011;61070;50.794;7.054;2023-08-06T02:29:39;8.23;;;2.85;;
72924;SDS011;61070;50.794;7.054;2023-08-06T02:30:10;4.25;;;2.50;;
72924;SDS011;61070;50.794;7.054;2023-08-06T02:30:49;4.07;;;2.50;;
72924;SDS011;61070;50.794;7.054;2023-08-06T02:31:20;3.63;;;2.60;;
72924;SDS011;61070;50.794;7.054;2023-08-06T02:31:50;6.50;;;2.72;;
72924;SDS011;61070;50.794;7.054;2023-08-06T02:32:20;4.50;;;2.80;;
72924;SDS011;61070;50.794;7.054;2023-08-06T02:32:50;5.22;;;3.20;;
72924;SDS011;61070;50.794;7.054;2023-08-06T02:33:21;7.97;;;2.88;;
72924;SDS011;61070;50.794;7.054;2023-08-06T02:33:51;5.00;;;2.90;;
72924;SDS011;61070;50.794;7.054;2023-08-06T02:34:24;7.97;;;2.78;;
72924;SDS011;61070;50.794;7.054;2023-08-06T02:34:54;4.10;;;2.72;;
72924;SDS011;61070;50.794;7.054;2023-08-06T02:35:25;4.18;;;2.42;;
72924;SDS011;61070;50.794;7.054;2023-08-06T02:36:01;5.55;;;2.83;;
72924;SDS011;61070;50.794;7.054;2023-08-06T02:36:35;5.55;;;3.33;;
72924;SDS011;61070;50.794;7.054;2023-08-06T02:37:06;21.70;;;3.47;;
72924;SDS011;61070;50.794;7.054;2023-08-06T02:37:36;6.97;;;2.83;;
72924;SDS011;61070;50.794;7.054;2023-08-06T02:38:06;6.05;;;2.70;;
72924;SDS011;61070;50.794;7.054;2023-08-06T02:38:36;7.35;;;3.33;;
72924;SDS011;61070;50.794;7.054;2023-08-06T02:39:07;4.70;;;3.08;;
72924;SDS011;61070;50.794;7.054;2023-08-06T02:39:37;4.22;;;2.83;;
72924;SDS011;61070;50.794;7.054;2023-08-06T02:40:09;7.80;;;3.50;;
72924;SDS011;61070;50.794;7.054;2023-08-06T02:40:44;4.65;;;3.03;;
72924;SDS011;61070;50.794;7.054;2023-08-06T02:41:15;11.07;;;3.22;;
72924;SDS011;61070;50.794;7.054;2023-08-06T02:41:45;5.78;;;3.30;;
72924;SDS011;61070;50.794;7.054;2023-08-06T02:42:16;5.90;;;3.00;;
72924;SDS011;61070;50.794;7.054;2023-08-06T02:42:46;6.03;;;3.65;;
72924;SDS011;61070;50.794;7.054;2023-08-06T02:43:16;5.97;;;3.30;;
72924;SDS011;61070;50.794;7.054;2023-08-06T02:43:46;7.43;;;3.53;;
72924;SDS011;61070;50.794;7.054;2023-08-06T02:44:17;10.02;;;3.42;;
72924;SDS011;61070;50.794;7.054;2023-08-06T02:44:47;7.90;;;3.72;;
72924;SDS011;61070;50.794;7.054;2023-08-06T02:45:17;5.30;;;2.85;;
72924;SDS011;61070;50.794;7.054;2023-08-06T02:45:47;8.57;;;3.30;;
72924;SDS011;61070;50.794;7.054;2023-08-06T02:46:18;6.63;;;3.20;;
72924;SDS011;61070;50.794;7.054;2023-08-06T02:46:48;6.00;;;2.95;;
72924;SDS011;61070;50.794;7.054;2023-08-06T02:47:18;8.18;;;3.70;;
72924;SDS011;61070;50.794;7.054;2023-08-06T02:47:48;4.45;;;3.38;;
72924;SDS011;61070;50.794;7.054;2023-08-06T02:48:19;6.15;;;3.10;;
72924;SDS011;61070;50.794;7.054;2023-08-06T02:48:49;10.75;;;3.17;;
72924;SDS011;61070;50.794;7.054;2023-08-06T02:49:19;6.60;;;3.40;;
72924;SDS011;61070;50.794;7.054;2023-08-06T02:49:50;9.75;;;3.35;;
72924;SDS011;61070;50.794;7.054;2023-08-06T02:50:20;4.85;;;3.28;;
72924;SDS011;61070;50.794;7.054;2023-08-06T02:50:50;5.53;;;3.58;;
72924;SDS011;61070;50.794;7.054;2023-08-06T02:51:20;5.55;;;3.53;;
72924;SDS011;61070;50.794;7.054;2023-08-06T02:51:51;12.00;;;4.00;;
72924;SDS011;61070;50.794;7.054;2023-08-06T02:52:21;5.50;;;3.70;;
72924;SDS011;61070;50.794;7.054;2023-08-06T02:52:52;8.65;;;3.05;;
72924;SDS011;61070;50.794;7.054;2023-08-06T02:53:22;9.38;;;3.40;;
72924;SDS011;61070;50.794;7.054;2023-08-06T02:53:52;8.95;;;3.88;;
72924;SDS011;61070;50.794;7.054;2023-08-06T02:54:23;7.65;;;3.22;;
72924;SDS011;61070;50.794;7.054;2023-08-06T02:54:53;7.60;;;2.95;;
72924;SDS011;61070;50.794;7.054;2023-08-06T02:55:23;6.35;;;3.45;;
72924;SDS011;61070;50.794;7.054;2023-08-06T02:55:53;7.25;;;3.63;;
72924;SDS011;61070;50.794;7.054;2023-08-06T02:56:25;7.65;;;3.78;;
72924;SDS011;61070;50.794;7.054;2023-08-06T02:56:56;6.35;;;3.28;;
72924;SDS011;61070;50.794;7.054;2023-08-06T02:57:26;6.72;;;3.25;;
72924;SDS011;61070;50.794;7.054;2023-08-06T02:57:56;6.00;;;3.47;;
72924;SDS011;61070;50.794;7.054;2023-08-06T02:58:27;6.45;;;3.10;;
72924;SDS011;61070;50.794;7.054;2023-08-06T02:58:57;9.02;;;3.25;;
72924;SDS011;61070;50.794;7.054;2023-08-06T02:59:27;5.75;;;3.20;;
72924;SDS011;61070;50.794;7.054;2023-08-06T02:59:57;6.97;;;3.33;;
72924;SDS011;61070;50.794;7.054;2023-08-06T03:00:28;5.78;;;3.72;;
72924;SDS011;61070;50.794;7.054;2023-08-06T03:01:05;6.75;;;3.58;;
72924;SDS011;61070;50.794;7.054;2023-08-06T03:01:37;9.45;;;3.35;;
72924;SDS011;61070;50.794;7.054;2023-08-06T03:02:07;7.05;;;3.70;;
72924;SDS011;61070;50.794;7.054;2023-08-06T03:02:37;23.75;;;3.85;;
72924;SDS011;61070;50.794;7.054;2023-08-06T03:03:07;8.55;;;3.58;;
72924;SDS011;61070;50.794;7.054;2023-08-06T03:03:38;6.80;;;3.55;;
72924;SDS011;61070;50.794;7.054;2023-08-06T03:04:08;5.55;;;3.20;;
72924;SDS011;61070;50.794;7.054;2023-08-06T03:04:38;4.97;;;3.10;;
72924;SDS011;61070;50.794;7.054;2023-08-06T03:05:09;5.80;;;3.20;;
72924;SDS011;61070;50.794;7.054;2023-08-06T03:05:39;7.30;;;3.60;;
72924;SDS011;61070;50.794;7.054;2023-08-06T03:06:09;9.23;;;3.17;;
72924;SDS011;61070;50.794;7.054;2023-08-06T03:06:40;10.73;;;3.38;;
72924;SDS011;61070;50.794;7.054;2023-08-06T03:07:10;8.18;;;3.30;;
72924;SDS011;61070;50.794;7.054;2023-08-06T03:07:40;5.22;;;3.17;;
72924;SDS011;61070;50.794;7.054;2023-08-06T03:08:10;9.10;;;3.60;;
72924;SDS011;61070;50.794;7.054;2023-08-06T03:08:41;8.23;;;3.20;;
72924;SDS011;61070;50.794;7.054;2023-08-06T03:09:11;4.78;;;3.10;;
72924;SDS011;61070;50.794;7.054;2023-08-06T03:09:41;5.80;;;2.80;;
72924;SDS011;61070;50.794;7.054;2023-08-06T03:10:11;10.32;;;2.90;;
72924;SDS011;61070;50.794;7.054;2023-08-06T03:10:43;4.32;;;2.85;;
72924;SDS011;61070;50.794;7.054;2023-08-06T03:11:13;5.90;;;3.00;;
72924;SDS011;61070;50.794;7.054;2023-08-06T03:11:43;4.53;;;2.90;;
72924;SDS011;61070;50.794;7.054;2023-08-06T03:12:14;5.82;;;2.88;;
72924;SDS011;61070;50.794;7.054;2023-08-06T03:12:44;5.35;;;2.90;;
72924;SDS011;61070;50.794;7.054;2023-08-06T03:13:14;4.55;;;2.75;;
72924;SDS011;61070;50.794;7.054;2023-08-06T03:13:44;5.40;;;3.13;;
72924;SDS011;61070;50.794;7.054;2023-08-06T03:14:15;5.45;;;2.45;;